Silerton, Tennessee
Current Conditions -  °F | °C
As of 6:14 AM on Friday 24 Oct 2014 (Local Time) from KMKL Reporting Station
Haze Haze  
Wind Chill: 41°   Ceiling: Unl
Heat Index: 41°   Visibility: 4mi
Dew Point: 39°   Wind: 0mph
Humidity: 93%   Direction: NA
Pressure: 30.13"   Gusts: NA
Location:  35.34°N, 88.81°W
Report Text: KMKL 241114Z AUTO 00000KT 4SM BR CLR 05/04 A3013 RMK AO2
Loading
Personal Weather Stations






























Interactive Weather Map
Tropical Storm Tracking
New forecast layout! Learn more

10-Day Weather Forecast

Advertisements
Track Severe Weather on mobile